Time;durP1;ratioP1;P1;durP2;ratioP2;P2;SDS_P1;SDS_P2;PMS_P1;PMS_P2;Temp;Humidity;BMP_temperature;BMP_pressure;BME280_temperature;BME280_humidity;BME280_pressure;Samples;Min_cycle;Max_cycle;Signal;HPM_P1;HPM_P2
2021/04/08 00:02:04;;;;;;;6.60;1.33;;;3.30;99.90;;;;;;5060730;28;20046;-75
2021/04/08 00:04:31;;;;;;;8.05;1.52;;;3.30;99.90;;;;;;5088377;28;20036;-73
2021/04/08 00:06:58;;;;;;;5.72;1.45;;;3.40;99.90;;;;;;5085044;28;20092;-72
2021/04/08 00:09:24;;;;;;;4.70;1.38;;;3.40;99.90;;;;;;5071917;28;20025;-73
2021/04/08 00:11:50;;;;;;;13.23;2.00;;;3.50;99.90;;;;;;5069705;28;20462;-71
2021/04/08 00:14:16;;;;;;;6.70;1.60;;;3.50;99.90;;;;;;5069670;28;20688;-72
2021/04/08 00:16:42;;;;;;;10.38;2.03;;;3.50;99.90;;;;;;5065222;28;20021;-72
2021/04/08 00:19:10;;;;;;;5.45;1.52;;;3.50;99.90;;;;;;5071090;28;20047;-72
2021/04/08 00:21:37;;;;;;;4.53;1.50;;;3.30;99.90;;;;;;5070296;28;20078;-71
2021/04/08 00:24:03;;;;;;;7.50;1.35;;;3.20;99.90;;;;;;5072142;28;20029;-73
2021/04/08 00:26:30;;;;;;;17.60;1.95;;;3.20;99.90;;;;;;5067782;28;20020;-72
2021/04/08 00:28:56;;;;;;;11.55;1.67;;;3.30;99.90;;;;;;5069999;28;20023;-71
2021/04/08 00:31:22;;;;;;;9.05;1.30;;;3.30;99.90;;;;;;5068992;28;20491;-71
2021/04/08 00:33:48;;;;;;;4.38;1.33;;;3.50;99.90;;;;;;5073001;28;20036;-69
2021/04/08 00:36:13;;;;;;;5.57;1.70;;;3.50;99.90;;;;;;5072576;28;20055;-71
2021/04/08 00:38:39;;;;;;;15.75;2.00;;;3.50;99.90;;;;;;5073770;28;20361;-71
2021/04/08 00:41:05;;;;;;;6.65;1.35;;;3.40;99.90;;;;;;5073574;28;20083;-71
2021/04/08 00:43:31;;;;;;;7.18;2.95;;;3.50;99.90;;;;;;5066485;28;20043;-72
2021/04/08 00:45:56;;;;;;;5.13;1.65;;;3.50;99.90;;;;;;5069450;28;20032;-70
2021/04/08 00:48:22;;;;;;;14.25;2.90;;;3.30;99.90;;;;;;5068884;28;20036;-70
2021/04/08 00:50:48;;;;;;;4.07;1.17;;;3.20;99.90;;;;;;5069964;28;20094;-71
2021/04/08 00:53:18;;;;;;;12.65;1.75;;;3.10;99.90;;;;;;5065519;28;20029;-71
2021/04/08 00:55:48;;;;;;;6.20;1.08;;;3.10;99.90;;;;;;5065289;28;20051;-72
2021/04/08 00:58:16;;;;;;;8.13;1.48;;;3.00;99.90;;;;;;5069449;28;20016;-71
2021/04/08 01:00:43;;;;;;;9.57;1.23;;;3.00;99.90;;;;;;5073051;28;20048;-71
2021/04/08 01:03:10;;;;;;;11.63;1.30;;;2.90;99.90;;;;;;5067790;28;20108;-69
2021/04/08 01:05:36;;;;;;;8.82;2.35;;;2.90;99.90;;;;;;5073701;28;20031;-71
2021/04/08 01:08:02;;;;;;;6.63;1.20;;;2.80;99.90;;;;;;5067621;28;20017;-71
2021/04/08 01:10:28;;;;;;;3.95;1.10;;;2.80;99.90;;;;;;5066404;28;20089;-71
2021/04/08 01:13:06;;;;;;;9.02;1.40;;;2.90;99.90;;;;;;5070342;28;20036;-72
2021/04/08 01:15:33;;;;;;;5.00;0.98;;;2.90;99.90;;;;;;5058350;28;20632;-73
2021/04/08 01:18:28;;;;;;;9.18;1.50;;;3.00;99.90;;;;;;5061684;28;20748;-71
2021/04/08 01:21:25;;;;;;;6.40;1.70;;;3.00;99.90;;;;;;5061778;28;20469;-72
2021/04/08 01:24:29;;;;;;;3.45;1.08;;;3.10;99.90;;;;;;5049655;28;20080;-73
2021/04/08 01:26:54;;;;;;;;;;;3.30;99.90;;;;;;5066419;28;20024;-71
2021/04/08 01:29:29;;;;;;;5.40;1.30;;;3.40;99.90;;;;;;5067458;28;19912;-72
2021/04/08 01:31:55;;;;;;;7.28;1.55;;;3.40;99.90;;;;;;5056132;28;20028;-72
2021/04/08 01:34:23;;;;;;;4.43;1.27;;;3.40;99.90;;;;;;5069153;28;20036;-72
2021/04/08 01:36:54;;;;;;;2.47;1.10;;;3.40;99.90;;;;;;5047982;28;20024;-72
2021/04/08 01:39:21;;;;;;;9.52;1.33;;;3.40;99.90;;;;;;5067444;28;20361;-71
2021/04/08 01:41:48;;;;;;;4.82;1.27;;;3.40;99.90;;;;;;5066654;28;20044;-71
2021/04/08 01:44:20;;;;;;;7.10;1.70;;;3.30;99.90;;;;;;5062418;28;20051;-71
2021/04/08 01:46:55;;;;;;;9.23;1.58;;;3.30;99.90;;;;;;5065863;28;20496;-73
2021/04/08 01:49:21;;;;;;;5.35;1.75;;;3.30;99.90;;;;;;5067084;28;20021;-72
2021/04/08 01:51:48;;;;;;;5.40;1.55;;;3.40;99.90;;;;;;5067678;28;20074;-71
2021/04/08 01:54:15;;;;;;;9.80;2.13;;;3.50;99.90;;;;;;5061960;28;20062;-71
2021/04/08 01:56:43;;;;;;;7.80;1.80;;;3.50;99.90;;;;;;5067935;28;20096;-70
2021/04/08 01:59:13;;;;;;;7.40;1.77;;;3.50;99.90;;;;;;5069159;28;20017;-73
2021/04/08 02:01:42;;;;;;;10.85;1.90;;;3.50;99.90;;;;;;5066112;28;20677;-71
2021/04/08 02:04:09;;;;;;;6.05;1.10;;;3.40;99.90;;;;;;5066898;28;20040;-72
2021/04/08 02:06:36;;;;;;;8.23;1.52;;;3.50;99.90;;;;;;5067334;28;20480;-71
2021/04/08 02:09:03;;;;;;;8.95;1.75;;;3.50;99.90;;;;;;5070360;28;20029;-71
2021/04/08 02:11:31;;;;;;;8.50;1.58;;;3.60;99.90;;;;;;5069944;28;20103;-71
2021/04/08 02:13:57;;;;;;;7.10;2.15;;;3.50;99.90;;;;;;5067199;28;20500;-71
2021/04/08 02:16:23;;;;;;;8.15;2.13;;;3.40;99.90;;;;;;5068874;28;20035;-70
2021/04/08 02:18:50;;;;;;;10.95;2.22;;;3.40;99.90;;;;;;5069912;28;20009;-73
2021/04/08 02:21:18;;;;;;;12.00;1.75;;;3.40;99.90;;;;;;5073268;28;20727;-70
2021/04/08 02:23:45;;;;;;;8.65;2.25;;;3.40;99.90;;;;;;5072043;28;20048;-72
2021/04/08 02:26:14;;;;;;;8.73;2.28;;;3.40;99.90;;;;;;5074994;28;20028;-72
2021/04/08 02:28:40;;;;;;;4.43;1.83;;;3.30;99.90;;;;;;5074704;28;20063;-71
2021/04/08 02:31:08;;;;;;;11.75;1.88;;;3.20;99.90;;;;;;5068148;28;20020;-72
2021/04/08 02:33:33;;;;;;;14.25;3.08;;;3.20;99.90;;;;;;5068485;28;20053;-71
2021/04/08 02:36:01;;;;;;;8.30;2.13;;;3.10;99.90;;;;;;5070803;28;20593;-73
2021/04/08 02:38:29;;;;;;;11.10;2.00;;;3.00;99.90;;;;;;5069817;28;20017;-71
2021/04/08 02:40:57;;;;;;;6.28;1.85;;;3.00;99.90;;;;;;5070324;28;20040;-72
2021/04/08 02:43:22;;;;;;;10.45;2.65;;;3.00;99.90;;;;;;5069772;28;20044;-70
2021/04/08 02:45:48;;;;;;;11.95;2.10;;;3.00;99.90;;;;;;5069110;28;20056;-71
2021/04/08 02:48:16;;;;;;;9.88;2.40;;;3.00;99.90;;;;;;5070948;28;20120;-72
2021/04/08 02:50:43;;;;;;;11.82;2.70;;;3.10;99.90;;;;;;5065210;28;20016;-71
2021/04/08 02:53:24;;;;;;;11.73;2.58;;;3.10;99.90;;;;;;5062017;28;20052;-71
2021/04/08 02:56:02;;;;;;;11.32;2.50;;;3.10;99.90;;;;;;5067569;28;20024;-72
2021/04/08 02:58:31;;;;;;;11.20;3.13;;;3.10;99.90;;;;;;5051946;28;20467;-71
2021/04/08 03:01:02;;;;;;;6.32;1.83;;;3.10;99.90;;;;;;5070478;28;20047;-72
2021/04/08 03:03:35;;;;;;;9.85;2.30;;;3.20;99.90;;;;;;5069450;28;20116;-72
2021/04/08 03:06:05;;;;;;;12.63;2.00;;;3.30;99.90;;;;;;5070427;28;20169;-71
2021/04/08 03:08:32;;;;;;;9.75;2.08;;;3.30;99.90;;;;;;5070024;28;20452;-73
2021/04/08 03:11:04;;;;;;;8.60;2.85;;;3.40;99.90;;;;;;5069377;28;20477;-73
2021/04/08 03:13:33;;;;;;;6.53;2.47;;;3.40;99.90;;;;;;5070075;28;20033;-73
2021/04/08 03:16:01;;;;;;;11.75;2.20;;;3.40;99.90;;;;;;5069920;28;20033;-72
2021/04/08 03:18:27;;;;;;;7.72;2.63;;;3.50;99.90;;;;;;5069537;28;20491;-73
2021/04/08 03:20:54;;;;;;;6.22;1.88;;;3.40;99.90;;;;;;5068744;28;20017;-71
2021/04/08 03:23:23;;;;;;;9.18;2.08;;;3.40;99.90;;;;;;5069025;28;20096;-74
2021/04/08 03:25:50;;;;;;;9.52;2.05;;;3.40;99.90;;;;;;5067001;28;20020;-72
2021/04/08 03:28:18;;;;;;;4.60;1.80;;;3.40;99.90;;;;;;5063840;28;20032;-72
2021/04/08 03:30:45;;;;;;;4.30;1.80;;;3.40;99.90;;;;;;5066462;28;20028;-71
2021/04/08 03:33:13;;;;;;;11.50;2.45;;;3.30;99.90;;;;;;5066033;28;20033;-72
2021/04/08 03:35:44;;;;;;;4.82;1.85;;;3.40;99.90;;;;;;5069263;28;20025;-73
2021/04/08 03:38:10;;;;;;;4.82;2.13;;;3.50;99.90;;;;;;5068908;28;20027;-73
2021/04/08 03:40:36;;;;;;;10.18;2.97;;;3.50;99.90;;;;;;5068981;28;20103;-72
2021/04/08 03:43:02;;;;;;;7.85;2.25;;;3.50;99.90;;;;;;5067751;28;20021;-71
2021/04/08 03:45:28;;;;;;;4.07;2.10;;;3.50;99.90;;;;;;5069290;28;20134;-70
2021/04/08 03:47:59;;;;;;;5.53;1.80;;;3.50;99.90;;;;;;5068722;28;20020;-71
2021/04/08 03:50:25;;;;;;;6.53;2.17;;;3.50;99.90;;;;;;5067263;28;20695;-72
2021/04/08 03:52:51;;;;;;;4.38;1.95;;;3.50;99.90;;;;;;5067714;28;20046;-71
2021/04/08 03:55:17;;;;;;;5.63;1.95;;;3.50;99.90;;;;;;5061285;28;20476;-70
2021/04/08 03:57:45;;;;;;;4.72;2.13;;;3.50;99.90;;;;;;5066774;28;20126;-73
2021/04/08 04:00:12;;;;;;;1.85;1.35;;;3.50;99.90;;;;;;5061342;28;20027;-73
2021/04/08 04:02:40;;;;;;;3.47;1.63;;;3.40;99.90;;;;;;5064390;28;20080;-72
2021/04/08 04:05:08;;;;;;;2.88;1.52;;;3.40;99.90;;;;;;5071293;28;20016;-72
2021/04/08 04:07:36;;;;;;;5.00;1.90;;;3.40;99.90;;;;;;5069799;28;20089;-71
2021/04/08 04:10:03;;;;;;;6.72;2.10;;;3.40;99.90;;;;;;5068889;28;20040;-71
2021/04/08 04:12:29;;;;;;;8.07;1.73;;;3.40;99.90;;;;;;5068563;28;20111;-72
2021/04/08 04:14:58;;;;;;;3.03;1.38;;;3.30;99.90;;;;;;5067934;28;20024;-72
2021/04/08 04:17:26;;;;;;;7.53;1.65;;;3.30;99.90;;;;;;5067589;28;20543;-71
2021/04/08 04:19:52;;;;;;;4.45;1.90;;;3.30;99.90;;;;;;5067764;28;20024;-71
2021/04/08 04:22:18;;;;;;;6.30;2.00;;;3.30;99.90;;;;;;5067993;28;20027;-72
2021/04/08 04:24:44;;;;;;;5.50;1.83;;;3.30;99.90;;;;;;5067728;28;20035;-70
2021/04/08 04:27:09;;;;;;;4.43;1.83;;;3.30;99.90;;;;;;5068424;28;20040;-73
2021/04/08 04:29:35;;;;;;;2.35;2.05;;;3.30;99.90;;;;;;5069154;28;20035;-75
2021/04/08 04:32:01;;;;;;;3.95;1.45;;;3.30;99.90;;;;;;5069613;28;20028;-72
2021/04/08 04:34:30;;;;;;;4.30;1.48;;;3.40;99.90;;;;;;5070606;28;20020;-73
2021/04/08 04:36:55;;;;;;;4.35;2.15;;;3.30;99.90;;;;;;5071379;28;20029;-73
2021/04/08 04:39:21;;;;;;;9.65;2.05;;;3.30;99.90;;;;;;5070080;28;20052;-72
2021/04/08 04:41:47;;;;;;;3.78;2.20;;;3.30;99.90;;;;;;5070347;28;20169;-72
2021/04/08 04:44:12;;;;;;;10.35;2.17;;;3.30;99.90;;;;;;5071118;28;20712;-74
2021/04/08 04:46:38;;;;;;;4.10;2.00;;;3.30;99.90;;;;;;5074925;28;20966;-73
2021/04/08 04:49:04;;;;;;;4.00;1.77;;;3.40;99.90;;;;;;5075696;28;20056;-72
2021/04/08 04:51:29;;;;;;;3.17;2.20;;;3.40;99.90;;;;;;5068642;28;20032;-72
2021/04/08 04:53:56;;;;;;;4.72;1.95;;;3.40;99.90;;;;;;5070424;28;20051;-71
2021/04/08 04:56:22;;;;;;;5.05;2.65;;;3.40;99.90;;;;;;5071568;28;20295;-72
2021/04/08 04:58:47;;;;;;;3.88;1.70;;;3.30;99.90;;;;;;5071156;28;20662;-74
2021/04/08 05:01:13;;;;;;;13.27;2.10;;;3.20;99.90;;;;;;5069821;28;20016;-73
2021/04/08 05:03:38;;;;;;;5.65;1.75;;;3.20;99.90;;;;;;5073847;28;20020;-71
2021/04/08 05:06:04;;;;;;;7.35;2.10;;;3.20;99.90;;;;;;5074945;28;20047;-74
2021/04/08 05:08:30;;;;;;;11.48;2.55;;;3.20;99.90;;;;;;5071312;28;20579;-71
2021/04/08 05:10:55;;;;;;;5.40;2.33;;;3.20;99.90;;;;;;5064874;28;20021;-72
2021/04/08 05:13:21;;;;;;;3.70;2.65;;;3.20;99.90;;;;;;5067160;28;20068;-70
2021/04/08 05:15:46;;;;;;;9.15;3.33;;;3.30;99.90;;;;;;5067587;28;20028;-73
2021/04/08 05:18:12;;;;;;;6.53;2.75;;;3.30;99.90;;;;;;5067609;28;20094;-73
2021/04/08 05:20:39;;;;;;;5.25;2.55;;;3.30;99.90;;;;;;5070030;28;20024;-72
2021/04/08 05:23:04;;;;;;;6.13;2.88;;;3.30;99.90;;;;;;5072851;28;20204;-72
2021/04/08 05:25:30;;;;;;;7.68;4.45;;;3.30;99.90;;;;;;5071342;28;20082;-74
2021/04/08 05:27:56;;;;;;;7.00;3.67;;;3.30;99.90;;;;;;5070685;28;20040;-72
2021/04/08 05:30:22;;;;;;;9.05;3.55;;;3.30;99.90;;;;;;5067842;28;20060;-71
2021/04/08 05:32:47;;;;;;;5.65;2.88;;;3.30;99.90;;;;;;5066150;28;20028;-71
2021/04/08 05:35:13;;;;;;;5.18;2.70;;;3.40;99.90;;;;;;5066891;28;20028;-70
2021/04/08 05:37:39;;;;;;;8.02;3.20;;;3.30;99.90;;;;;;5067564;28;20036;-72
2021/04/08 05:40:05;;;;;;;9.25;2.90;;;3.30;99.90;;;;;;5065447;28;20028;-72
2021/04/08 05:42:31;;;;;;;6.57;3.42;;;3.30;99.90;;;;;;5069220;28;20511;-73
2021/04/08 05:44:56;;;;;;;6.68;2.75;;;3.40;99.90;;;;;;5069992;28;20481;-72
2021/04/08 05:47:22;;;;;;;8.02;3.05;;;3.50;99.90;;;;;;5070058;28;20078;-71
2021/04/08 05:49:48;;;;;;;4.22;2.50;;;3.60;99.90;;;;;;5068536;28;20032;-70
2021/04/08 05:52:13;;;;;;;4.43;2.83;;;3.60;99.90;;;;;;5070170;28;20087;-72
2021/04/08 05:54:39;;;;;;;13.10;3.00;;;3.60;99.90;;;;;;5068385;28;20031;-73
2021/04/08 05:57:05;;;;;;;9.45;3.28;;;3.60;99.90;;;;;;5068648;28;20643;-72
2021/04/08 05:59:32;;;;;;;11.68;3.35;;;3.70;99.90;;;;;;5068123;28;20443;-72
2021/04/08 06:01:57;;;;;;;7.20;2.88;;;3.70;99.90;;;;;;5070096;28;20016;-72
2021/04/08 06:04:23;;;;;;;7.07;3.10;;;3.80;99.90;;;;;;5070152;28;20086;-71
2021/04/08 06:06:49;;;;;;;5.78;3.30;;;3.90;99.90;;;;;;5069111;28;20082;-71
2021/04/08 06:09:15;;;;;;;7.45;2.92;;;3.90;99.90;;;;;;5068831;28;20027;-73
2021/04/08 06:11:41;;;;;;;9.80;2.60;;;4.00;99.90;;;;;;5071636;28;20036;-71
2021/04/08 06:14:08;;;;;;;5.82;3.22;;;4.10;99.90;;;;;;5067996;28;20017;-72
2021/04/08 06:16:33;;;;;;;5.25;2.92;;;4.10;99.90;;;;;;5074909;28;20104;-72
2021/04/08 06:18:59;;;;;;;10.73;4.03;;;4.10;99.90;;;;;;5073197;28;20045;-72
2021/04/08 06:21:25;;;;;;;6.47;2.53;;;4.10;99.90;;;;;;5072586;28;20216;-72
2021/04/08 06:23:55;;;;;;;8.75;2.08;;;4.10;99.90;;;;;;5073097;28;20021;-70
2021/04/08 06:26:21;;;;;;;6.57;2.70;;;4.20;99.90;;;;;;5073113;28;20131;-72
2021/04/08 06:28:47;;;;;;;6.50;3.15;;;4.20;99.90;;;;;;5075500;28;20016;-72
2021/04/08 06:31:13;;;;;;;8.95;2.65;;;4.20;99.90;;;;;;5076161;28;20102;-71
2021/04/08 06:33:40;;;;;;;11.70;2.75;;;4.10;99.90;;;;;;5076009;28;20036;-73
2021/04/08 06:36:08;;;;;;;6.05;2.88;;;4.20;99.90;;;;;;5072844;28;20028;-72
2021/04/08 06:38:35;;;;;;;9.43;2.92;;;4.20;99.90;;;;;;5077154;28;20024;-70
2021/04/08 06:41:01;;;;;;;11.60;2.95;;;4.20;99.90;;;;;;5074868;28;20379;-72
2021/04/08 06:43:30;;;;;;;5.35;3.45;;;4.20;99.90;;;;;;5079629;28;20082;-72
2021/04/08 06:45:58;;;;;;;9.63;3.50;;;4.30;99.90;;;;;;5083388;28;20024;-71
2021/04/08 06:48:47;;;;;;;7.90;2.95;;;4.30;99.90;;;;;;5075178;28;20029;-73
2021/04/08 06:51:18;;;;;;;7.22;3.00;;;4.30;99.90;;;;;;5065579;28;20174;-71
2021/04/08 06:53:44;;;;;;;8.35;3.42;;;4.30;99.90;;;;;;5072909;28;20032;-70
2021/04/08 06:56:11;;;;;;;10.55;3.70;;;4.30;99.90;;;;;;5067326;28;20036;-71
2021/04/08 06:58:38;;;;;;;8.00;2.92;;;4.30;99.90;;;;;;5069125;28;20017;-71
2021/04/08 07:01:11;;;;;;;8.77;3.42;;;4.30;99.90;;;;;;5066090;28;20050;-71
2021/04/08 07:03:39;;;;;;;10.60;3.33;;;4.40;99.90;;;;;;5060703;28;20016;-73
2021/04/08 07:06:05;;;;;;;6.72;3.67;;;4.50;99.90;;;;;;5061579;28;20044;-71
2021/04/08 07:08:32;;;;;;;8.32;3.42;;;4.50;99.90;;;;;;5069694;28;20036;-73
2021/04/08 07:11:00;;;;;;;9.27;3.53;;;4.50;99.90;;;;;;5071655;28;20090;-73
2021/04/08 07:13:30;;;;;;;11.93;3.53;;;4.50;99.90;;;;;;5070897;28;20025;-71
2021/04/08 07:15:57;;;;;;;8.63;4.60;;;4.50;99.90;;;;;;5061378;28;20396;-71
2021/04/08 07:18:27;;;;;;;9.55;3.60;;;4.70;99.90;;;;;;5070334;28;20207;-70
2021/04/08 07:20:54;;;;;;;9.30;3.20;;;4.60;99.90;;;;;;5070432;28;20070;-71
2021/04/08 07:23:21;;;;;;;9.50;4.13;;;4.70;99.90;;;;;;5072070;28;20058;-71
2021/04/08 07:26:07;;;;;;;9.57;3.70;;;4.90;99.90;;;;;;5068562;28;20300;-72
2021/04/08 07:28:34;;;;;;;7.18;4.07;;;5.00;99.90;;;;;;5070399;28;20059;-71
2021/04/08 07:31:28;;;;;;;12.80;5.28;;;5.10;99.90;;;;;;5070052;28;20020;-71
2021/04/08 07:33:56;;;;;;;11.07;3.72;;;5.20;99.90;;;;;;5070242;28;20111;-70
2021/04/08 07:36:33;;;;;;;9.30;5.15;;;5.10;99.90;;;;;;5075201;28;20048;-73
2021/04/08 07:39:03;;;;;;;10.45;4.32;;;5.10;99.90;;;;;;5077780;28;20046;-72
2021/04/08 07:41:29;;;;;;;12.15;4.28;;;5.20;99.90;;;;;;5065758;28;20090;-73
2021/04/08 07:44:07;;;;;;;9.38;4.93;;;5.30;99.90;;;;;;5067602;28;20146;-74
2021/04/08 07:46:41;;;;;;;7.68;4.15;;;5.40;99.90;;;;;;5067930;28;20048;-74
2021/04/08 07:49:28;;;;;;;12.38;4.57;;;5.40;99.90;;;;;;5081790;28;20021;-73
2021/04/08 07:51:54;;;;;;;7.65;3.63;;;5.50;99.90;;;;;;5080804;28;20625;-73
2021/04/08 07:54:20;;;;;;;13.80;4.38;;;5.40;99.90;;;;;;5081134;28;20024;-74
2021/04/08 07:56:46;;;;;;;7.82;3.88;;;5.50;99.90;;;;;;5072610;28;20032;-72
2021/04/08 07:59:22;;;;;;;7.43;3.42;;;5.60;99.90;;;;;;5069995;28;20020;-72
2021/04/08 08:01:58;;;;;;;10.07;3.67;;;5.60;99.90;;;;;;5068918;28;20137;-71
2021/04/08 08:04:25;;;;;;;10.18;3.95;;;5.60;99.90;;;;;;5068560;28;20025;-71
2021/04/08 08:06:53;;;;;;;7.85;4.18;;;5.70;99.90;;;;;;5056486;28;20116;-73
2021/04/08 08:09:30;;;;;;;5.85;3.70;;;5.80;99.90;;;;;;5063447;28;20017;-72
2021/04/08 08:12:06;;;;;;;12.68;4.22;;;5.70;99.90;;;;;;5063920;28;20024;-73
2021/04/08 08:14:41;;;;;;;12.93;4.20;;;5.60;99.90;;;;;;5071201;28;20118;-71
2021/04/08 08:17:15;;;;;;;11.98;3.83;;;5.50;99.90;;;;;;5070706;28;20021;-73
2021/04/08 08:19:45;;;;;;;10.38;4.75;;;5.50;99.90;;;;;;5071951;28;20392;-72
2021/04/08 08:22:23;;;;;;;9.95;3.88;;;5.60;99.90;;;;;;5077137;28;20452;-73
2021/04/08 08:24:56;;;;;;;13.32;3.97;;;5.50;99.90;;;;;;5076371;28;20086;-72
2021/04/08 08:27:37;;;;;;;7.50;4.25;;;5.50;99.90;;;;;;5070004;28;20035;-72
2021/04/08 08:30:20;;;;;;;15.98;5.50;;;5.50;99.90;;;;;;5069746;28;20074;-72
2021/04/08 08:33:05;;;;;;;11.07;4.55;;;5.60;99.90;;;;;;5064006;28;20029;-73
2021/04/08 08:35:32;;;;;;;17.55;5.53;;;5.60;99.90;;;;;;5064503;28;20111;-72
2021/04/08 08:38:11;;;;;;;8.93;5.07;;;5.70;99.90;;;;;;5070157;28;20016;-73
2021/04/08 08:40:38;;;;;;;11.93;4.80;;;5.70;99.90;;;;;;5072010;28;20020;-73
2021/04/08 08:43:05;;;;;;;11.43;5.75;;;5.70;99.90;;;;;;5075694;28;20343;-75
2021/04/08 08:45:31;;;;;;;12.63;5.47;;;5.90;99.90;;;;;;5078159;28;20063;-73
2021/04/08 08:48:00;;;;;;;13.88;5.30;;;5.90;99.90;;;;;;5071684;28;20075;-75
2021/04/08 08:50:26;;;;;;;13.35;4.40;;;5.90;99.90;;;;;;5077745;28;20671;-75
2021/04/08 08:52:52;;;;;;;12.50;5.32;;;6.00;99.90;;;;;;5077394;28;20044;-73
2021/04/08 08:55:20;;;;;;;12.75;5.45;;;6.00;99.90;;;;;;5076904;28;20027;-74
2021/04/08 08:57:49;;;;;;;13.38;6.13;;;6.00;99.90;;;;;;5070588;28;20024;-73
2021/04/08 09:00:16;;;;;;;13.25;5.40;;;6.00;99.90;;;;;;5063178;28;20274;-74
2021/04/08 09:02:42;;;;;;;15.05;6.20;;;6.00;99.90;;;;;;5070137;28;20109;-72
2021/04/08 09:05:13;;;;;;;8.50;4.47;;;6.10;99.90;;;;;;5065804;28;20025;-75
2021/04/08 09:07:45;;;;;;;11.02;5.47;;;6.10;99.90;;;;;;5061468;28;20035;-74
2021/04/08 09:10:13;;;;;;;7.40;4.43;;;6.10;99.90;;;;;;5069469;28;20464;-74
2021/04/08 09:12:39;;;;;;;12.38;4.60;;;6.20;99.90;;;;;;5068173;28;20108;-74
2021/04/08 09:15:07;;;;;;;12.90;5.30;;;6.20;99.90;;;;;;5069004;28;20023;-72
2021/04/08 09:17:40;;;;;;;11.23;4.30;;;6.10;99.90;;;;;;5068873;28;20024;-73
2021/04/08 09:20:07;;;;;;;13.63;4.68;;;6.10;99.90;;;;;;5069499;28;20060;-76
2021/04/08 09:22:33;;;;;;;12.82;5.30;;;6.20;99.90;;;;;;5072913;28;20027;-73
2021/04/08 09:24:58;;;;;;;8.55;4.82;;;6.30;99.90;;;;;;5070422;28;20032;-72
2021/04/08 09:27:25;;;;;;;15.88;4.90;;;6.30;99.90;;;;;;5052134;28;20325;-74
2021/04/08 09:29:56;;;;;;;13.95;5.60;;;6.30;99.90;;;;;;5058935;28;20033;-76
2021/04/08 09:32:32;;;;;;;14.27;5.15;;;6.40;99.90;;;;;;5068324;28;20377;-75
2021/04/08 09:35:03;;;;;;;10.82;5.40;;;6.50;99.90;;;;;;5069869;28;20028;-75
2021/04/08 09:37:51;;;;;;;11.18;5.43;;;6.50;99.90;;;;;;5070679;28;20379;-73
2021/04/08 09:40:32;;;;;;;12.20;5.25;;;6.50;99.90;;;;;;5069265;28;20032;-73
2021/04/08 09:43:02;;;;;;;16.75;5.95;;;6.60;99.90;;;;;;5070321;28;20091;-72
2021/04/08 09:45:29;;;;;;;17.25;5.88;;;6.70;99.90;;;;;;5073173;28;20450;-73
2021/04/08 09:48:10;;;;;;;11.77;6.05;;;6.70;99.90;;;;;;5074642;28;20024;-74
2021/04/08 09:50:55;;;;;;;12.95;6.18;;;6.80;99.90;;;;;;5074153;28;20059;-72
2021/04/08 09:53:25;;;;;;;17.13;6.88;;;6.80;99.90;;;;;;5073914;28;20547;-76
2021/04/08 09:55:55;;;;;;;16.65;6.95;;;6.90;99.90;;;;;;5088453;28;20043;-74
2021/04/08 09:58:26;;;;;;;14.32;6.60;;;7.00;99.90;;;;;;5076872;28;20052;-74
2021/04/08 10:00:54;;;;;;;20.85;6.53;;;7.20;99.90;;;;;;5071196;28;20025;-73
2021/04/08 10:03:40;;;;;;;13.07;5.90;;;7.20;99.90;;;;;;5069315;28;20025;-73
2021/04/08 10:06:21;;;;;;;12.95;5.93;;;7.10;99.90;;;;;;5069627;28;20530;-74
2021/04/08 10:08:48;;;;;;;12.07;6.40;;;7.10;99.90;;;;;;5070032;28;20035;-77
2021/04/08 10:11:35;;;;;;;11.98;6.38;;;7.20;99.90;;;;;;5068012;28;20082;-72
2021/04/08 10:14:13;;;;;;;16.80;6.82;;;7.40;99.90;;;;;;5077062;28;20127;-73
2021/04/08 10:16:39;;;;;;;10.70;6.43;;;7.40;99.90;;;;;;5071497;28;20028;-75
2021/04/08 10:19:04;;;;;;;13.00;7.43;;;7.30;99.90;;;;;;5070052;28;20028;-71
2021/04/08 10:21:30;;;;;;;11.52;6.40;;;7.40;99.90;;;;;;5071396;28;20020;-72
2021/04/08 10:23:56;;;;;;;14.68;7.00;;;7.30;99.90;;;;;;5069225;28;20382;-73
2021/04/08 10:26:28;;;;;;;14.57;6.97;;;7.30;99.90;;;;;;5069393;28;20029;-73
2021/04/08 10:28:56;;;;;;;9.73;6.25;;;7.40;99.90;;;;;;5073666;28;20020;-72
2021/04/08 10:31:35;;;;;;;16.00;6.55;;;7.40;99.90;;;;;;5075879;28;20028;-73
2021/04/08 10:34:11;;;;;;;13.35;6.65;;;7.30;99.90;;;;;;5072122;28;20374;-74
2021/04/08 10:36:38;;;;;;;12.55;7.00;;;7.30;99.90;;;;;;5067421;28;20071;-74
2021/04/08 10:39:06;;;;;;;15.27;6.60;;;7.30;99.90;;;;;;5060510;28;20017;-75
2021/04/08 10:41:33;;;;;;;14.30;6.78;;;7.40;99.90;;;;;;5094695;28;20048;-74
2021/04/08 10:44:18;;;;;;;16.30;7.72;;;7.40;99.90;;;;;;5093118;28;20088;-74
2021/04/08 10:46:44;;;;;;;13.27;6.90;;;7.60;99.90;;;;;;5082166;28;20077;-75
2021/04/08 10:49:10;;;;;;;9.98;6.05;;;7.50;99.90;;;;;;5094985;28;20130;-76
2021/04/08 10:51:36;;;;;;;11.00;5.95;;;7.60;99.90;;;;;;5080290;28;20047;-74
2021/04/08 10:54:02;;;;;;;13.55;5.93;;;7.80;99.90;;;;;;5093740;28;20056;-72
2021/04/08 10:56:28;;;;;;;15.88;6.22;;;7.90;99.90;;;;;;5094052;28;20020;-75
2021/04/08 10:59:13;;;;;;;13.40;7.00;;;7.80;99.90;;;;;;5086172;28;20025;-75
2021/04/08 11:01:39;;;;;;;12.43;6.35;;;7.90;99.90;;;;;;5065394;28;20025;-72
2021/04/08 11:04:06;;;;;;;11.50;5.68;;;7.90;99.90;;;;;;5060911;28;20493;-74
2021/04/08 11:06:35;;;;;;;13.75;5.53;;;7.80;99.90;;;;;;5082353;28;20025;-74
2021/04/08 11:09:00;;;;;;;9.00;5.88;;;7.90;99.50;;;;;;5059970;28;20040;-73
2021/04/08 11:11:27;;;;;;;7.95;5.68;;;7.90;99.20;;;;;;5060440;28;20210;-74
2021/04/08 11:13:52;;;;;;;10.93;5.63;;;8.10;99.30;;;;;;5060488;28;20032;-76
2021/04/08 11:16:18;;;;;;;9.32;5.32;;;8.40;99.40;;;;;;5076597;28;20400;-73
2021/04/08 11:18:45;;;;;;;8.10;5.78;;;8.70;99.50;;;;;;5072661;28;20032;-72
2021/04/08 11:21:11;;;;;;;12.65;6.10;;;8.90;98.50;;;;;;5071143;28;20099;-73
2021/04/08 11:23:37;;;;;;;9.98;5.90;;;8.80;97.20;;;;;;5071118;28;20062;-72
2021/04/08 11:26:05;;;;;;;13.35;6.47;;;8.70;96.80;;;;;;5070793;28;20016;-72
2021/04/08 11:28:31;;;;;;;10.15;6.40;;;8.60;96.90;;;;;;5071838;28;20021;-74
2021/04/08 11:30:57;;;;;;;9.68;6.03;;;8.90;99.20;;;;;;5065948;28;20671;-73
2021/04/08 11:33:24;;;;;;;10.45;5.75;;;9.10;94.20;;;;;;5061398;28;20024;-73
2021/04/08 11:35:49;;;;;;;10.25;6.95;;;9.00;93.90;;;;;;5067019;28;20157;-73
2021/04/08 11:38:20;;;;;;;10.80;6.03;;;8.70;95.10;;;;;;5066102;28;20144;-74
2021/04/08 11:40:51;;;;;;;9.35;6.45;;;8.60;94.10;;;;;;5074650;28;20020;-74
2021/04/08 11:43:23;;;;;;;11.50;6.40;;;8.90;95.60;;;;;;5076978;28;20051;-74
2021/04/08 11:45:52;;;;;;;9.50;6.15;;;9.10;94.60;;;;;;5074580;28;20033;-73
2021/04/08 11:48:21;;;;;;;11.68;6.28;;;9.00;94.50;;;;;;5072698;28;20025;-75
2021/04/08 11:50:47;;;;;;;10.60;6.63;;;9.20;94.90;;;;;;5072877;28;20028;-73
2021/04/08 11:53:15;;;;;;;10.02;6.10;;;9.30;93.00;;;;;;5073058;28;20241;-74
2021/04/08 11:55:49;;;;;;;9.98;6.82;;;9.20;91.90;;;;;;5069083;28;20035;-76
2021/04/08 11:58:44;;;;;;;9.82;6.18;;;9.20;93.90;;;;;;5073232;28;20384;-74
2021/04/08 12:01:15;;;;;;;7.88;6.03;;;9.00;93.10;;;;;;5048429;28;20129;-72
2021/04/08 12:03:45;;;;;;;9.75;6.75;;;9.00;93.60;;;;;;5072977;28;20031;-73
2021/04/08 12:06:13;;;;;;;11.95;6.90;;;9.20;92.20;;;;;;5066094;28;20020;-73
2021/04/08 12:08:57;;;;;;;12.13;6.55;;;9.10;91.30;;;;;;5064525;28;20201;-73
2021/04/08 12:11:23;;;;;;;14.30;7.30;;;9.10;91.30;;;;;;5074054;28;20113;-74
2021/04/08 12:14:05;;;;;;;9.50;6.30;;;8.90;90.80;;;;;;5071524;28;20092;-73
2021/04/08 12:16:31;;;;;;;;;;;9.00;91.90;;;;;;5076071;28;20054;-75
2021/04/08 12:18:58;;;;;;;11.48;6.72;;;9.00;91.30;;;;;;5080314;28;19922;-74
2021/04/08 12:21:26;;;;;;;12.68;6.28;;;9.00;91.90;;;;;;5058342;28;20021;-73
2021/04/08 12:23:52;;;;;;;9.77;6.38;;;9.40;92.40;;;;;;5061703;28;20021;-73
2021/04/08 12:26:38;;;;;;;13.13;6.43;;;9.90;90.50;;;;;;5070552;28;20024;-73
2021/04/08 12:29:04;;;;;;;10.65;6.35;;;10.50;89.90;;;;;;5072178;28;20030;-74
2021/04/08 12:31:31;;;;;;;7.38;6.32;;;10.80;84.70;;;;;;5068498;28;20064;-72
2021/04/08 12:33:57;;;;;;;14.82;6.75;;;10.50;86.50;;;;;;5071526;28;20016;-72
2021/04/08 12:36:23;;;;;;;10.85;6.15;;;10.60;83.80;;;;;;5079670;28;20162;-74
2021/04/08 12:38:49;;;;;;;11.25;6.30;;;10.70;82.60;;;;;;5081429;28;20044;-74
2021/04/08 12:41:15;;;;;;;8.50;5.93;;;10.70;81.70;;;;;;5076735;28;20365;-76
2021/04/08 12:43:40;;;;;;;10.98;5.90;;;10.70;81.90;;;;;;5074214;28;20108;-74
2021/04/08 12:46:07;;;;;;;10.82;6.18;;;10.90;82.50;;;;;;5077850;28;20021;-73
2021/04/08 12:48:33;;;;;;;10.60;5.97;;;11.10;82.20;;;;;;5074952;28;20031;-74
2021/04/08 12:50:59;;;;;;;11.75;6.25;;;11.50;84.50;;;;;;5069158;28;20028;-75
2021/04/08 12:53:26;;;;;;;8.68;6.43;;;11.40;80.40;;;;;;5069028;28;20446;-73
2021/04/08 12:55:54;;;;;;;14.63;6.25;;;10.70;81.70;;;;;;5070487;28;20020;-74
2021/04/08 12:58:20;;;;;;;9.95;6.05;;;9.90;80.30;;;;;;5069522;28;20013;-73
2021/04/08 13:00:46;;;;;;;7.43;5.72;;;10.20;81.90;;;;;;5065603;28;20021;-72
2021/04/08 13:03:12;;;;;;;6.40;5.38;;;10.90;85.00;;;;;;5070647;28;20021;-74